Styria — 2GMM — position and weather

sailwx.info

Track history (hours):
 
Tides and Currents Weather Stations Pressure Air Temp Water Temp Dewpoint Dewpoint Depression Visibility Wind Speed Wind Dir Waves Ship Positions

Styria

Last reported at 2017-Sep-18 09:48 UTC. Time now 2017-Sep-22 22:40 UTC.
Position N 48°24' W 004°49'.

Type: Sailing vessel. MMSI: 235024959.

Date/timePositionNaut miles runAvg speedWind from/ knotsBaromVisibWave heightAir tempDewpointWater temp
2017-Sep-18 09:48N 48°24' W 004°49'6 5.9
2017-Sep-18 08:43N 48°19' W 004°43'2 5.9
2017-Sep-18 08:24N 48°18' W 004°41'2 5.7
2017-Sep-18 08:00N 48°18' W 004°37'1 0.1
2017-Sep-17 12:57N 48°17' W 004°36'0 0.0
2017-Sep-17 12:30N 48°17' W 004°36'0 0.0
2017-Sep-17 11:57N 48°17' W 004°36'0 0.0
2017-Sep-17 11:30N 48°17' W 004°36'0 0.0
2017-Sep-17 11:00N 48°17' W 004°36'0 0.0
2017-Sep-17 10:30N 48°17' W 004°36'0 0.0
2017-Sep-17 10:00N 48°17' W 004°36'0 0.0
2017-Sep-17 09:30N 48°17' W 004°36'2 3.3
2017-Sep-17 09:00N 48°18' W 004°35'2 4.8
2017-Sep-17 08:30N 48°20' W 004°33'2 4.4
2017-Sep-17 08:00N 48°19' W 004°30'2 0.1
2017-Sep-16 16:44N 48°17' W 004°31'0 0.1
2017-Sep-16 16:30N 48°18' W 004°31'3 5.7
2017-Sep-16 16:00N 48°18' W 004°26'3 5.7
2017-Sep-16 15:30N 48°18' W 004°22'3 5.7
2017-Sep-16 14:58N 48°18' W 004°18'  
2017-Sep-08 13:55N 48°18' W 004°31'1 2.8
2017-Sep-08 13:31N 48°18' W 004°29'3 5.5
2017-Sep-08 13:01N 48°21' W 004°31'3 6.6
2017-Sep-08 12:30N 48°18' W 004°35'  
Track history (hours):
 
Tides and Currents Weather Stations Pressure Air Temp Water Temp Dewpoint Dewpoint Depression Visibility Wind Speed Wind Dir Waves Ship Positions

Styria

Last reported at 2017-Sep-18 09:48 UTC. Time now 2017-Sep-22 22:40 UTC.
Position N 48°24' W 004°49'.

Type: Sailing vessel. MMSI: 235024959.

Date/timePositionNaut miles runAvg speedWind from/ knotsBaromVisibWave heightAir tempDewpointWater temp
2017-Sep-18 09:48N 48°24' W 004°49'6 5.9
2017-Sep-18 08:43N 48°19' W 004°43'2 5.9
2017-Sep-18 08:24N 48°18' W 004°41'2 5.7
2017-Sep-18 08:00N 48°18' W 004°37'1 0.1
2017-Sep-17 12:57N 48°17' W 004°36'0 0.0
2017-Sep-17 12:30N 48°17' W 004°36'0 0.0
2017-Sep-17 11:57N 48°17' W 004°36'0 0.0
2017-Sep-17 11:30N 48°17' W 004°36'0 0.0
2017-Sep-17 11:00N 48°17' W 004°36'0 0.0
2017-Sep-17 10:30N 48°17' W 004°36'0 0.0
2017-Sep-17 10:00N 48°17' W 004°36'0 0.0
2017-Sep-17 09:30N 48°17' W 004°36'2 3.3
2017-Sep-17 09:00N 48°18' W 004°35'2 4.8
2017-Sep-17 08:30N 48°20' W 004°33'2 4.4
2017-Sep-17 08:00N 48°19' W 004°30'2 0.1
2017-Sep-16 16:44N 48°17' W 004°31'0 0.1
2017-Sep-16 16:30N 48°18' W 004°31'3 5.7
2017-Sep-16 16:00N 48°18' W 004°26'3 5.7
2017-Sep-16 15:30N 48°18' W 004°22'3 5.7
2017-Sep-16 14:58N 48°18' W 004°18'  
2017-Sep-08 13:55N 48°18' W 004°31'1 2.8
2017-Sep-08 13:31N 48°18' W 004°29'3 5.5
2017-Sep-08 13:01N 48°21' W 004°31'3 6.6
2017-Sep-08 12:30N 48°18' W 004°35'  

Dump ship's entire track history